Time;durP1;ratioP1;P1;durP2;ratioP2;P2;SDS_P1;SDS_P2;PMS_P1;PMS_P2;Temp;Humidity;BMP_temperature;BMP_pressure;BME280_temperature;BME280_humidity;BME280_pressure;Samples;Min_cycle;Max_cycle;Signal;HPM_P1;HPM_P2
2021/12/25 00:00:39;;;;;;;22.63;13.67;;;;;;;-0.70;100.00;98301.02;1629036;87;21600;-73
2021/12/25 00:03:06;;;;;;;24.93;14.10;;;;;;;-0.70;100.00;98303.66;1631162;88;20998;-72
2021/12/25 00:05:33;;;;;;;24.50;14.40;;;;;;;-0.72;100.00;98312.27;1630979;88;21006;-72
2021/12/25 00:08:00;;;;;;;28.10;16.83;;;;;;;-0.73;100.00;98318.53;1631204;88;21038;-73
2021/12/25 00:10:30;;;;;;;27.00;16.87;;;;;;;-0.72;100.00;98319.40;1636382;87;21041;-72
2021/12/25 00:12:57;;;;;;;27.73;16.63;;;;;;;-0.73;100.00;98312.40;1597584;89;21023;-73
2021/12/25 00:15:24;;;;;;;25.83;16.07;;;;;;;-0.75;100.00;98309.05;1621845;88;21082;-73
2021/12/25 00:17:51;;;;;;;26.50;16.07;;;;;;;-0.75;100.00;98320.50;1591189;90;21090;-73
2021/12/25 00:20:17;;;;;;;23.93;14.63;;;;;;;-0.77;100.00;98330.42;1621714;88;21072;-73
2021/12/25 00:22:44;;;;;;;23.73;13.90;;;;;;;-0.76;100.00;98321.50;1591077;90;21071;-72
2021/12/25 00:25:11;;;;;;;23.47;14.70;;;;;;;-0.73;100.00;98312.40;1654363;83;21041;-73
2021/12/25 00:27:47;;;;;;;24.53;14.80;;;;;;;-0.72;100.00;98309.61;1732231;82;20990;-72
2021/12/25 00:30:15;;;;;;;23.97;13.90;;;;;;;-0.69;100.00;98305.82;1735476;82;20999;-72
2021/12/25 00:35:06;;;;;;;32.07;21.47;;;;;;;-0.69;100.00;98301.84;1739601;82;21019;-73
2021/12/25 00:37:35;;;;;;;28.07;18.00;;;;;;;-0.71;100.00;98305.95;1738983;82;21013;-72
2021/12/25 00:40:01;;;;;;;25.67;15.93;;;;;;;-0.73;100.00;98307.09;1738714;82;21003;-72
2021/12/25 00:42:28;;;;;;;25.50;15.67;;;;;;;-0.76;100.00;98314.86;1738858;82;21007;-73
2021/12/25 00:44:55;;;;;;;23.87;14.93;;;;;;;-0.77;100.00;98311.84;1739172;82;20975;-73
2021/12/25 00:47:22;;;;;;;23.57;14.77;;;;;;;-0.78;100.00;98303.05;1738512;82;21517;-72
2021/12/25 00:49:49;;;;;;;23.63;15.67;;;;;;;-0.78;100.00;98299.55;1737798;82;21023;-73
2021/12/25 00:52:16;;;;;;;28.53;17.00;;;;;;;-0.78;100.00;98306.18;1739247;82;21011;-73
2021/12/25 00:54:43;;;;;;;26.10;15.90;;;;;;;-0.81;100.00;98303.83;1739011;82;21014;-75
2021/12/25 00:57:10;;;;;;;28.53;16.70;;;;;;;-0.81;100.00;98310.47;1711208;84;20972;-73
2021/12/25 00:59:37;;;;;;;25.07;14.87;;;;;;;-0.82;100.00;98314.09;1711485;84;20975;-72
2021/12/25 01:02:03;;;;;;;24.80;15.63;;;;;;;-0.84;100.00;98315.55;1711707;84;20991;-72
2021/12/25 01:04:30;;;;;;;27.30;16.63;;;;;;;-0.83;100.00;98321.22;1710531;84;21035;-73
2021/12/25 01:06:57;;;;;;;25.80;18.10;;;;;;;-0.84;100.00;98318.20;1738006;82;20998;-73
2021/12/25 01:09:25;;;;;;;28.47;17.77;;;;;;;-0.88;100.00;98320.80;1739076;82;20951;-73
2021/12/25 01:11:53;;;;;;;29.00;18.50;;;;;;;-0.89;100.00;98323.59;1738960;82;20988;-73
2021/12/25 01:14:35;;;;;;;27.73;17.23;;;;;;;-0.91;100.00;98311.78;1744331;81;21008;-73
2021/12/25 01:30:47;;;;;;;28.53;18.40;;;;;;;-0.99;100.00;98316.48;1740463;82;21019;-73
2021/12/25 01:38:57;;;;;;;27.23;16.60;;;;;;;-1.04;100.00;98312.08;1680694;85;21075;-72
2021/12/25 01:49:53;;;;;;;28.83;17.57;;;;;;;-1.09;100.00;98313.48;1585291;90;21001;-73
2021/12/25 01:52:26;;;;;;;28.30;17.33;;;;;;;-1.10;100.00;98317.09;1585311;90;21580;-73
2021/12/25 01:54:49;;;;;;;26.37;16.20;;;;;;;-1.10;100.00;98307.81;1582471;90;21554;-73
2021/12/25 01:57:16;;;;;;;28.00;17.23;;;;;;;-1.09;100.00;98306.84;1555549;90;21011;-73
2021/12/25 01:59:43;;;;;;;27.17;16.97;;;;;;;-1.11;100.00;98301.67;1542935;92;21026;-72
2021/12/25 02:02:10;;;;;;;27.43;16.80;;;;;;;-1.11;100.00;98304.83;1555608;92;21091;-74
2021/12/25 02:04:37;;;;;;;28.33;16.40;;;;;;;-1.13;100.00;98308.94;1556564;92;21572;-72
2021/12/25 02:07:03;;;;;;;26.10;15.97;;;;;;;-1.13;100.00;98316.89;1556707;92;21099;-73
2021/12/25 02:09:30;;;;;;;25.70;16.17;;;;;;;-1.12;100.00;98321.70;1557029;92;21063;-74
2021/12/25 02:11:58;;;;;;;25.97;15.70;;;;;;;-1.13;100.00;98322.20;1536584;92;21110;-74
2021/12/25 02:14:25;;;;;;;26.67;15.30;;;;;;;-1.15;100.00;98323.66;1558164;91;21045;-75
2021/12/25 02:16:58;;;;;;;25.50;14.50;;;;;;;-1.16;100.00;98315.34;1556995;91;21142;-72
2021/12/25 02:19:44;;;;;;;23.50;14.67;;;;;;;-1.17;100.00;98309.70;1576015;91;21034;-73
2021/12/25 02:22:08;;;;;;;23.87;14.73;;;;;;;-1.18;100.00;98301.88;1598652;88;21071;-73
2021/12/25 02:24:36;;;;;;;24.87;14.50;;;;;;;-1.21;100.00;98303.48;1669180;85;21524;-73
2021/12/25 02:27:05;;;;;;;26.30;14.20;;;;;;;-1.22;100.00;98311.08;1696368;82;20980;-73
2021/12/25 02:29:33;;;;;;;22.37;13.87;;;;;;;-1.25;100.00;98304.25;1742113;82;21000;-72
2021/12/25 02:32:01;;;;;;;25.03;15.10;;;;;;;-1.28;100.00;98301.03;1742227;82;21043;-73
2021/12/25 02:34:28;;;;;;;21.70;13.23;;;;;;;-1.31;100.00;98303.48;1743933;82;21015;-72
2021/12/25 02:36:55;;;;;;;25.93;16.17;;;;;;;-1.33;100.00;98304.09;1742231;82;21026;-74
2021/12/25 02:39:22;;;;;;;24.47;14.77;;;;;;;-1.36;100.00;98301.23;1743996;82;21022;-74
2021/12/25 02:41:50;;;;;;;25.80;14.93;;;;;;;-1.36;100.00;98306.55;1742300;82;21510;-73
2021/12/25 02:44:17;;;;;;;25.03;15.50;;;;;;;-1.38;100.00;98311.61;1742152;82;20983;-74
2021/12/25 02:46:55;;;;;;;26.63;16.33;;;;;;;-1.40;100.00;98308.27;1742120;82;21549;-73
2021/12/25 02:49:24;;;;;;;27.60;15.87;;;;;;;-1.41;100.00;98310.09;1742262;82;21003;-73
2021/12/25 02:51:52;;;;;;;26.67;15.40;;;;;;;-1.44;100.00;98299.75;1742116;82;21019;-74
2021/12/25 02:54:19;;;;;;;28.77;17.93;;;;;;;-1.47;100.00;98284.14;1742035;82;20983;-74
2021/12/25 02:56:46;;;;;;;26.23;16.73;;;;;;;-1.47;100.00;98275.33;1715912;82;21027;-73
2021/12/25 02:59:13;;;;;;;26.37;17.03;;;;;;;-1.51;100.00;98280.07;1709036;84;21519;-74
2021/12/25 03:01:40;;;;;;;25.87;16.10;;;;;;;-1.53;100.00;98276.23;1708954;84;21034;-72
2021/12/25 03:04:08;;;;;;;24.83;15.53;;;;;;;-1.53;100.00;98285.50;1709064;84;21520;-74
2021/12/25 03:06:37;;;;;;;26.73;16.30;;;;;;;-1.56;100.00;98287.13;1677259;86;21048;-73
2021/12/25 03:09:05;;;;;;;27.27;16.10;;;;;;;-1.54;100.00;98281.20;1709141;84;21047;-73
2021/12/25 03:11:34;;;;;;;27.07;16.40;;;;;;;-1.52;100.00;98282.39;1709670;81;21027;-74
2021/12/25 03:14:13;;;;;;;25.77;15.73;;;;;;;-1.51;100.00;98277.42;1721131;83;21051;-74
2021/12/25 03:16:33;;;;;;;26.40;16.03;;;;;;;-1.51;100.00;98280.56;1720990;83;21042;-74
2021/12/25 03:19:01;;;;;;;27.13;16.53;;;;;;;-1.52;100.00;98283.72;1721400;83;21022;-74
2021/12/25 03:21:28;;;;;;;26.23;16.07;;;;;;;-1.51;100.00;98285.37;1721221;83;21041;-72
2021/12/25 03:23:55;;;;;;;26.63;17.07;;;;;;;-1.50;100.00;98287.56;1721504;83;21066;-73
2021/12/25 03:26:22;;;;;;;27.10;17.20;;;;;;;-1.49;100.00;98294.02;1691512;84;21035;-73
2021/12/25 03:28:51;;;;;;;30.47;18.97;;;;;;;-1.47;100.00;98294.75;1743538;81;20999;-73
2021/12/25 03:31:19;;;;;;;30.50;18.87;;;;;;;-1.46;100.00;98291.60;1745394;81;20987;-74
2021/12/25 03:33:51;;;;;;;30.43;19.93;;;;;;;-1.45;100.00;98295.44;1747279;81;21003;-73
2021/12/25 03:36:18;;;;;;;31.17;19.70;;;;;;;-1.43;100.00;98299.29;1674224;84;21001;-73
2021/12/25 03:38:45;;;;;;;28.70;18.10;;;;;;;-1.45;100.00;98298.56;1674333;84;21550;-73
2021/12/25 03:41:12;;;;;;;31.77;19.00;;;;;;;-1.44;100.00;98297.10;1673907;86;21113;-72
2021/12/25 03:43:40;;;;;;;31.67;20.50;;;;;;;-1.41;100.00;98303.95;1673599;86;21018;-74
2021/12/25 03:46:09;;;;;;;28.70;18.93;;;;;;;-1.40;100.00;98301.64;1673929;84;20994;-73
2021/12/25 03:59:36;;;;;;;33.73;19.97;;;;;;;-1.37;100.00;98330.05;1672477;84;21116;-73
2021/12/25 04:02:11;;;;;;;32.93;19.17;;;;;;;-1.35;100.00;98337.86;1672310;86;21524;-74
2021/12/25 04:04:37;;;;;;;29.43;18.33;;;;;;;-1.32;100.00;98342.91;1646587;86;21543;-74
2021/12/25 04:09:34;;;;;;;32.87;19.47;;;;;;;-1.29;100.00;98345.75;1620076;89;21119;-74
2021/12/25 04:12:05;;;;;;;34.30;18.53;;;;;;;-1.28;100.00;98344.79;1622648;87;21129;-74
2021/12/25 04:14:35;;;;;;;32.97;17.43;;;;;;;-1.28;100.00;98347.44;1638708;88;21065;-75
2021/12/25 04:17:03;;;;;;;29.30;18.47;;;;;;;-1.28;100.00;98345.63;1638663;88;21058;-72
2021/12/25 04:19:31;;;;;;;25.97;16.80;;;;;;;-1.26;100.00;98338.86;1638683;88;21488;-74
2021/12/25 04:22:02;;;;;;;29.80;17.70;;;;;;;-1.23;100.00;98327.98;1638859;88;21560;-73
2021/12/25 04:24:30;;;;;;;27.90;16.77;;;;;;;-1.21;100.00;98325.53;1635359;88;21042;-74
2021/12/25 04:26:56;;;;;;;30.40;17.50;;;;;;;-1.19;100.00;98328.91;1638222;85;21476;-72
2021/12/25 04:47:45;;;;;;;30.07;17.13;;;;;;;-0.99;100.00;98327.59;1692842;85;21578;-72
2021/12/25 05:02:01;;;;;;;27.17;16.63;;;;;;;-0.65;100.00;98330.63;1665563;85;21023;-73
2021/12/25 05:07:10;;;;;;;29.63;17.50;;;;;;;-0.58;100.00;98326.92;1586853;89;21109;-74
2021/12/25 05:09:43;;;;;;;28.97;17.03;;;;;;;-0.56;100.00;98328.94;1587177;90;21080;-72
2021/12/25 05:12:10;;;;;;;;;;;;;;;-0.54;100.00;98321.66;1590107;90;21060;-74
2021/12/25 05:14:36;;;;;;;33.00;17.97;;;;;;;-0.50;100.00;98314.25;1593583;90;20121;-75
2021/12/25 05:17:05;;;;;;;25.83;16.63;;;;;;;-0.48;100.00;98313.61;1593823;90;21568;-73
2021/12/25 05:19:34;;;;;;;29.83;18.60;;;;;;;-0.45;100.00;98318.64;1593418;90;21124;-76
2021/12/25 05:22:01;;;;;;;28.30;18.27;;;;;;;-0.41;100.00;98316.89;1593301;90;21020;-73
2021/12/25 05:24:29;;;;;;;30.57;18.10;;;;;;;-0.34;100.00;98321.62;1593356;90;21110;-74
2021/12/25 05:26:57;;;;;;;27.87;17.07;;;;;;;-0.27;100.00;98322.22;1588159;90;21073;-75
2021/12/25 05:29:25;;;;;;;29.97;17.63;;;;;;;-0.22;100.00;98324.45;1559181;92;21149;-75
2021/12/25 05:31:53;;;;;;;26.27;16.80;;;;;;;-0.15;100.00;98317.58;1559195;92;21065;-74
2021/12/25 05:34:39;;;;;;;30.33;17.73;;;;;;;-0.08;100.00;98327.14;1559153;92;21082;-74
2021/12/25 05:37:08;;;;;;;32.30;18.93;;;;;;;-0.02;100.00;98337.17;1553302;92;21107;-75
2021/12/25 05:39:42;;;;;;;28.35;17.27;;;;;;;0.04;100.00;98338.44;1554249;92;21082;-74
2021/12/25 05:42:09;;;;;;;29.57;17.93;;;;;;;0.09;100.00;98356.08;1583256;91;21637;-74
2021/12/25 05:44:37;;;;;;;29.43;17.13;;;;;;;0.13;100.00;98348.18;1582816;91;21041;-75
2021/12/25 05:47:03;;;;;;;30.47;18.30;;;;;;;0.17;100.00;98353.04;1583449;91;21098;-75
2021/12/25 05:49:32;;;;;;;29.90;17.40;;;;;;;0.21;100.00;98365.55;1583188;91;21063;-75
2021/12/25 05:52:01;;;;;;;29.37;18.47;;;;;;;0.24;100.00;98373.23;1573324;91;21107;-74
2021/12/25 05:54:30;;;;;;;28.70;17.90;;;;;;;0.26;100.00;98374.42;1570511;91;21632;-73
2021/12/25 05:57:15;;;;;;;30.03;18.27;;;;;;;0.30;100.00;98384.63;1606571;89;21031;-75
2021/12/25 05:59:59;;;;;;;31.40;19.17;;;;;;;0.33;100.00;98422.04;1607492;89;21051;-74
2021/12/25 06:02:46;;;;;;;32.00;19.07;;;;;;;0.35;100.00;98438.22;1610581;85;21066;-75
2021/12/25 06:05:24;;;;;;;31.10;19.30;;;;;;;0.35;100.00;98438.22;1684748;85;20991;-74
2021/12/25 06:07:51;;;;;;;31.03;19.20;;;;;;;0.37;100.00;98439.37;1684067;85;21042;-75
2021/12/25 06:10:18;;;;;;;30.27;18.80;;;;;;;0.38;100.00;98436.57;1684396;85;21508;-74
2021/12/25 06:12:47;;;;;;;30.33;18.50;;;;;;;0.40;100.00;98443.58;1681459;85;21047;-75
2021/12/25 06:15:18;;;;;;;29.17;18.63;;;;;;;0.39;100.00;98450.72;1673419;86;21035;-74
2021/12/25 06:17:57;;;;;;;31.33;19.20;;;;;;;0.41;100.00;98453.21;1621808;87;21077;-75
2021/12/25 06:20:29;;;;;;;30.97;19.50;;;;;;;0.39;100.00;98460.03;1618607;88;21031;-72
2021/12/25 06:23:14;;;;;;;32.53;20.03;;;;;;;0.38;100.00;98459.17;1621983;88;21062;-74
2021/12/25 06:25:42;;;;;;;32.13;18.93;;;;;;;0.36;100.00;98474.44;1618576;88;21541;-73
2021/12/25 06:28:17;;;;;;;27.83;17.67;;;;;;;0.34;100.00;98471.59;1635731;87;20996;-74
2021/12/25 06:31:02;;;;;;;29.47;19.07;;;;;;;0.35;100.00;98470.59;1646048;87;21085;-73
2021/12/25 06:33:36;;;;;;;31.03;18.27;;;;;;;0.35;100.00;98462.61;1601655;89;21066;-73
2021/12/25 06:36:13;;;;;;;27.47;17.50;;;;;;;0.36;100.00;98471.78;1601533;89;21085;-74
2021/12/25 06:38:50;;;;;;;29.07;18.63;;;;;;;0.38;100.00;98467.15;1577495;90;21048;-74
2021/12/25 06:41:24;;;;;;;27.80;18.10;;;;;;;0.39;100.00;98458.70;1628685;88;21534;-73
2021/12/25 06:43:51;;;;;;;31.60;19.17;;;;;;;0.41;100.00;98463.38;1614439;88;21538;-74
2021/12/25 06:46:20;;;;;;;28.57;19.20;;;;;;;0.42;100.00;98466.87;1633084;88;21157;-73
2021/12/25 06:48:47;;;;;;;29.37;19.67;;;;;;;0.43;100.00;98465.39;1617941;87;21532;-73
2021/12/25 06:51:13;;;;;;;32.80;20.97;;;;;;;0.44;100.00;98463.56;1625871;88;21023;-74
2021/12/25 06:53:43;;;;;;;33.53;19.57;;;;;;;0.44;100.00;98463.06;1622140;88;21504;-72
2021/12/25 06:56:29;;;;;;;28.63;19.40;;;;;;;0.46;100.00;98457.61;1618497;88;21563;-73
2021/12/25 06:59:00;;;;;;;30.17;19.80;;;;;;;0.46;100.00;98459.80;1564224;92;21029;-72
2021/12/25 07:01:27;;;;;;;29.60;19.27;;;;;;;0.48;100.00;98451.17;1564414;92;21045;-73
2021/12/25 07:03:55;;;;;;;30.80;20.00;;;;;;;0.48;100.00;98453.84;1564423;92;21530;-72
2021/12/25 07:06:40;;;;;;;31.13;20.27;;;;;;;0.49;100.00;98455.99;1564228;92;21641;-74
2021/12/25 07:09:09;;;;;;;31.13;20.47;;;;;;;0.48;100.00;98453.84;1561224;92;21513;-72
2021/12/25 07:11:42;;;;;;;32.20;20.93;;;;;;;0.49;100.00;98455.99;1549694;92;21091;-72
2021/12/25 07:14:12;;;;;;;33.83;20.77;;;;;;;0.50;100.00;98461.17;1535680;92;21262;-72
2021/12/25 07:16:59;;;;;;;38.07;22.57;;;;;;;0.52;100.00;98473.83;1524672;94;21175;-71
2021/12/25 07:19:36;;;;;;;38.83;24.73;;;;;;;0.54;100.00;98481.16;1490261;96;21099;-71
2021/12/25 07:22:11;;;;;;;38.47;25.13;;;;;;;0.58;100.00;98476.39;1490295;96;21087;-72
2021/12/25 07:24:57;;;;;;;36.27;22.83;;;;;;;0.60;100.00;98471.76;1490423;96;21120;-73
2021/12/25 07:27:30;;;;;;;52.67;31.07;;;;;;;0.62;100.00;98448.53;1452524;98;21119;-74
2021/12/25 07:29:58;;;;;;;44.03;26.70;;;;;;;0.63;100.00;98470.64;1430030;100;21596;-73
2021/12/25 07:32:25;;;;;;;45.13;28.23;;;;;;;0.63;100.00;98511.88;1453338;99;21114;-72
2021/12/25 07:34:52;;;;;;;36.40;24.27;;;;;;;0.62;100.00;98526.15;1453681;98;21084;-72
2021/12/25 07:37:20;;;;;;;32.53;21.50;;;;;;;0.67;100.00;98522.56;1493502;96;21082;-74
2021/12/25 07:39:46;;;;;;;32.17;20.30;;;;;;;0.68;100.00;98526.41;1498341;96;21034;-74
2021/12/25 07:42:13;;;;;;;31.30;19.07;;;;;;;0.69;100.00;98520.59;1508105;94;21622;-77
2021/12/25 07:45:04;;;;;;;33.97;20.47;;;;;;;0.69;100.00;98523.25;1527368;94;21071;-76
2021/12/25 07:47:27;;;;;;;31.90;20.37;;;;;;;0.68;100.00;98525.58;1531041;92;21570;-75
2021/12/25 07:49:56;;;;;;;31.27;19.23;;;;;;;0.69;100.00;98532.56;1559888;91;21026;-75
2021/12/25 07:52:22;;;;;;;31.00;19.27;;;;;;;0.69;100.00;98520.59;1559465;91;21047;-77
2021/12/25 07:54:49;;;;;;;31.13;18.37;;;;;;;0.70;100.00;98534.25;1561101;91;21051;-74
2021/12/25 07:57:16;;;;;;;32.50;20.47;;;;;;;0.73;100.00;98521.50;1624014;88;21026;-74
2021/12/25 07:59:43;;;;;;;30.60;19.40;;;;;;;0.73;100.00;98528.16;1632857;88;20990;-74
2021/12/25 08:02:10;;;;;;;30.97;19.77;;;;;;;0.76;100.00;98519.02;1632873;88;21030;-74
2021/12/25 08:04:37;;;;;;;33.13;20.53;;;;;;;0.77;100.00;98518.05;1632681;88;20998;-74
2021/12/25 08:07:04;;;;;;;33.70;20.50;;;;;;;0.79;100.00;98529.88;1632769;88;21050;-74
2021/12/25 08:09:31;;;;;;;33.17;21.00;;;;;;;0.79;100.00;98514.75;1627724;88;21167;-75
2021/12/25 08:12:00;;;;;;;32.97;21.00;;;;;;;0.79;100.00;98517.41;1706036;83;20995;-74
2021/12/25 08:14:28;;;;;;;32.87;21.83;;;;;;;0.77;100.00;98518.05;1746246;82;20997;-75
2021/12/25 08:16:57;;;;;;;32.40;20.70;;;;;;;0.76;100.00;98517.69;1754117;82;21030;-72
2021/12/25 08:19:25;;;;;;;33.27;21.90;;;;;;;0.75;100.00;98519.52;1760477;81;21030;-75
2021/12/25 08:22:10;;;;;;;33.57;21.40;;;;;;;0.74;100.00;98531.64;1753826;80;20980;-73
2021/12/25 08:24:55;;;;;;;34.00;21.20;;;;;;;0.73;100.00;98522.00;1743818;81;20971;-75
2021/12/25 08:27:36;;;;;;;34.57;20.93;;;;;;;0.74;100.00;98528.52;1677825;84;21187;-72
2021/12/25 08:30:17;;;;;;;34.63;21.43;;;;;;;0.75;100.00;98537.32;1698572;84;21022;-73
2021/12/25 08:33:00;;;;;;;36.27;21.53;;;;;;;0.75;100.00;98547.96;1645729;87;21079;-75
2021/12/25 08:35:36;;;;;;;31.03;20.47;;;;;;;0.75;100.00;98550.63;1645734;87;21029;-74
2021/12/25 08:38:03;;;;;;;32.13;21.23;;;;;;;0.76;100.00;98554.95;1645748;87;21053;-73
2021/12/25 08:40:30;;;;;;;34.03;21.37;;;;;;;0.78;100.00;98551.67;1646285;87;21002;-78
2021/12/25 08:43:00;;;;;;;33.40;22.17;;;;;;;0.82;100.00;98558.88;1645881;87;21030;-72
2021/12/25 08:48:20;;;;;;;35.63;22.23;;;;;;;0.87;100.00;98569.92;1645883;87;21046;-73
2021/12/25 08:50:53;;;;;;;36.57;21.60;;;;;;;0.88;100.00;98556.95;1645861;87;21014;-75
2021/12/25 08:53:21;;;;;;;35.13;21.27;;;;;;;0.90;100.00;98563.82;1622535;88;21099;-75
2021/12/25 08:55:49;;;;;;;33.37;20.80;;;;;;;0.90;100.00;98554.50;1613520;88;21067;-74
2021/12/25 08:58:16;;;;;;;33.10;21.73;;;;;;;0.93;100.00;98546.20;1596821;90;21103;-74
2021/12/25 09:00:44;;;;;;;31.17;19.20;;;;;;;0.96;100.00;98559.73;1596964;90;21035;-76
2021/12/25 09:03:12;;;;;;;31.43;20.40;;;;;;;0.98;100.00;98559.09;1604019;89;21013;-76
2021/12/25 09:05:38;;;;;;;35.30;21.83;;;;;;;0.99;100.00;98557.25;1615528;89;20973;-74
2021/12/25 09:08:07;;;;;;;35.30;21.63;;;;;;;1.00;100.00;98557.11;1685384;84;21485;-75
2021/12/25 09:10:35;;;;;;;33.93;21.70;;;;;;;1.04;100.00;98545.67;1698714;84;21499;-75
2021/12/25 09:13:02;;;;;;;32.67;22.03;;;;;;;1.06;100.00;98544.56;1695439;84;21011;-75
2021/12/25 09:15:29;;;;;;;32.27;20.90;;;;;;;1.10;100.00;98550.43;1671103;85;20997;-74
2021/12/25 09:17:56;;;;;;;32.67;21.47;;;;;;;1.11;100.00;98552.92;1666432;85;21106;-73
2021/12/25 09:20:23;;;;;;;32.93;21.80;;;;;;;1.12;100.00;98555.94;1669705;85;21002;-71
2021/12/25 09:23:00;;;;;;;33.28;22.50;;;;;;;1.17;100.00;98553.31;1874887;75;28335;-72
2021/12/25 09:25:27;;;;;;;30.80;20.97;;;;;;;1.23;100.00;98564.22;1873703;76;20982;-72
2021/12/25 09:27:55;;;;;;;35.77;23.57;;;;;;;1.31;100.00;98570.99;1875201;76;20994;-72
2021/12/25 09:30:23;;;;;;;34.70;23.47;;;;;;;1.33;100.00;98574.84;1864998;77;21033;-69
2021/12/25 09:32:50;;;;;;;32.87;20.63;;;;;;;1.35;100.00;98566.20;1868699;76;21036;-69
2021/12/25 09:35:17;;;;;;;32.07;20.63;;;;;;;1.37;100.00;98568.72;1873327;76;21009;-69
2021/12/25 09:37:44;;;;;;;32.97;21.50;;;;;;;1.35;100.00;98568.87;1855975;76;21049;-74
2021/12/25 09:40:12;;;;;;;33.27;21.13;;;;;;;1.33;100.00;98562.86;1885752;76;20974;-72
2021/12/25 09:42:40;;;;;;;35.53;21.07;;;;;;;1.33;100.00;98547.70;1881716;76;21107;-72
2021/12/25 09:45:08;;;;;;;36.23;22.83;;;;;;;1.34;100.00;98545.87;1855493;76;20966;-72
2021/12/25 09:47:37;;;;;;;36.43;21.47;;;;;;;1.34;100.00;98537.88;1863481;76;20947;-71
2021/12/25 09:50:05;;;;;;;36.60;22.37;;;;;;;1.36;100.00;98533.74;1841917;76;20998;-72
2021/12/25 09:52:33;;;;;;;36.93;22.10;;;;;;;1.35;100.00;98538.71;1888410;76;21028;-71
2021/12/25 09:55:00;;;;;;;46.17;27.33;;;;;;;1.33;100.00;98540.22;1884407;76;21041;-70
2021/12/25 09:57:27;;;;;;;42.37;27.23;;;;;;;1.31;100.00;98545.69;1829321;77;21506;-70
2021/12/25 09:59:54;;;;;;;52.33;29.47;;;;;;;1.30;100.00;98551.98;1838989;76;21435;-71
2021/12/25 10:02:29;;;;;;;91.70;44.70;;;;;;;1.29;100.00;98556.98;1839173;76;21068;-71
2021/12/25 10:04:56;;;;;;;53.00;28.80;;;;;;;1.29;100.00;98557.46;1874116;76;20941;-71
2021/12/25 10:07:32;;;;;;;48.70;28.47;;;;;;;1.29;100.00;98564.12;1839750;76;20965;-71
2021/12/25 10:10:10;;;;;;;47.10;26.33;;;;;;;1.26;100.00;98571.09;1873788;76;20944;-70
2021/12/25 10:12:44;;;;;;;48.47;26.87;;;;;;;1.22;100.00;98569.22;1840920;76;21054;-71
2021/12/25 10:15:19;;;;;;;57.27;31.40;;;;;;;1.22;100.00;98559.90;1866457;76;21016;-73
2021/12/25 10:17:53;;;;;;;53.33;28.83;;;;;;;1.23;100.00;98565.55;1725341;82;21068;-71
2021/12/25 10:20:23;;;;;;;54.73;31.03;;;;;;;1.25;100.00;98571.56;1718593;81;21045;-70
2021/12/25 10:23:02;;;;;;;42.10;28.60;;;;;;;1.24;100.00;98584.55;1705670;82;21519;-71
2021/12/25 10:25:38;;;;;;;36.00;23.67;;;;;;;1.25;100.00;98585.38;1707964;82;20989;-71
2021/12/25 10:28:08;;;;;;;45.47;29.17;;;;;;;1.26;100.00;98583.91;1728665;82;21100;-71
2021/12/25 10:30:48;;;;;;;46.53;29.70;;;;;;;1.26;100.00;98587.90;1713217;82;21018;-71
2021/12/25 10:33:50;;;;;;;35.67;23.73;;;;;;;1.25;100.00;98574.23;1734393;82;21543;-72
2021/12/25 10:36:32;;;;;;;35.97;22.63;;;;;;;1.25;100.00;98568.07;1672483;86;21569;-71
2021/12/25 10:39:04;;;;;;;37.23;23.03;;;;;;;1.22;100.00;98571.88;1672661;86;21049;-71
2021/12/25 10:41:34;;;;;;;33.50;21.07;;;;;;;1.25;100.00;98560.08;1670322;86;21057;-71
2021/12/25 10:44:19;;;;;;;37.33;24.63;;;;;;;1.26;100.00;98569.77;1629437;88;21079;-71
2021/12/25 10:46:52;;;;;;;36.00;23.13;;;;;;;1.26;100.00;98570.59;1519570;94;21548;-71
2021/12/25 10:49:21;;;;;;;37.97;24.50;;;;;;;1.29;100.00;98571.64;1537170;92;21074;-71
2021/12/25 10:51:48;;;;;;;40.13;26.40;;;;;;;1.35;100.00;98582.19;1548591;92;21116;-71
2021/12/25 10:54:17;;;;;;;40.83;26.70;;;;;;;1.39;100.00;98576.06;1550145;92;21112;-71
2021/12/25 10:56:48;;;;;;;37.77;25.07;;;;;;;1.43;100.00;98579.59;1534877;93;21026;-70
2021/12/25 10:59:18;;;;;;;36.47;23.63;;;;;;;1.47;100.00;98578.80;1570445;91;21110;-71
2021/12/25 11:01:49;;;;;;;36.70;23.70;;;;;;;1.46;100.00;98573.98;1536455;93;21083;-71
2021/12/25 11:04:36;;;;;;;37.43;24.93;;;;;;;1.48;100.00;98569.84;1547655;92;21047;-71
2021/12/25 11:07:15;;;;;;;33.43;22.53;;;;;;;1.51;100.00;98566.89;1539202;90;21075;-70
2021/12/25 11:10:11;;;;;;;36.83;24.13;;;;;;;1.57;100.00;98561.45;1625289;88;21025;-70
2021/12/25 11:12:40;;;;;;;45.03;28.00;;;;;;;1.60;100.00;98565.16;1574283;90;21138;-70
2021/12/25 11:15:21;;;;;;;44.77;28.33;;;;;;;1.63;100.00;98567.50;1616108;88;21115;-70
2021/12/25 11:17:52;;;;;;;51.50;30.70;;;;;;;1.64;100.00;98559.86;1587274;90;21168;-70
2021/12/25 11:20:29;;;;;;;59.87;32.77;;;;;;;1.64;100.00;98579.34;1592926;89;21066;-71
2021/12/25 11:22:58;;;;;;;99.30;45.17;;;;;;;1.65;100.00;98576.20;1600103;89;21166;-73
2021/12/25 11:25:28;;;;;;;82.77;38.47;;;;;;;1.66;100.00;98583.19;1598958;89;21543;-70
2021/12/25 11:27:55;;;;;;;97.07;43.17;;;;;;;1.71;100.00;98575.08;1591340;89;21039;-71
2021/12/25 11:30:24;;;;;;;53.10;27.90;;;;;;;1.74;100.00;98579.80;1609960;89;21040;-71
2021/12/25 11:32:52;;;;;;;96.87;46.70;;;;;;;1.77;100.00;98588.80;1609923;89;21103;-71
2021/12/25 11:35:19;;;;;;;82.30;39.83;;;;;;;1.77;100.00;98585.66;1609456;89;21095;-71
2021/12/25 11:37:47;;;;;;;45.53;26.93;;;;;;;1.80;100.00;98598.66;1610138;89;21067;-71
2021/12/25 11:40:14;;;;;;;43.60;26.60;;;;;;;1.81;100.00;98600.86;1609756;89;21100;-71
2021/12/25 11:42:46;;;;;;;35.13;23.60;;;;;;;1.81;100.00;98595.53;1677632;81;20993;-71
2021/12/25 11:45:25;;;;;;;36.40;22.75;;;;;;;1.78;100.00;98590.48;1762844;81;21062;-72
2021/12/25 11:47:55;;;;;;;37.03;24.03;;;;;;;1.73;100.00;98592.26;1749400;80;21021;-72
2021/12/25 11:50:40;;;;;;;37.03;22.40;;;;;;;1.73;100.00;98608.25;1777297;80;21592;-71
2021/12/25 11:53:28;;;;;;;47.65;28.70;;;;;;;1.95;100.00;98617.66;1773767;80;21006;-72
2021/12/25 11:58:49;;;;;;;32.87;21.57;;;;;;;2.06;100.00;98634.77;1851980;77;21490;-71
2021/12/25 12:01:29;;;;;;;32.17;21.37;;;;;;;2.00;100.00;98633.19;1853209;77;20993;-67
2021/12/25 12:04:21;;;;;;;30.40;20.97;;;;;;;1.96;100.00;98629.16;1805004;79;20941;-69
2021/12/25 12:07:06;;;;;;;34.43;21.55;;;;;;;1.92;100.00;98625.95;1816528;78;21049;-71
2021/12/25 12:09:55;;;;;;;37.60;24.07;;;;;;;1.88;100.00;98628.08;1813115;78;21061;-70
2021/12/25 12:12:30;;;;;;;37.73;23.03;;;;;;;1.82;100.00;98643.83;1807873;78;21053;-72
2021/12/25 12:15:14;;;;;;;37.97;24.37;;;;;;;1.76;100.00;98675.92;1820700;78;21037;-70
2021/12/25 12:18:33;;;;;;;43.08;28.55;;;;;;;1.71;100.00;98690.17;1827707;78;21523;-72
2021/12/25 12:21:18;;;;;;;40.40;26.83;;;;;;;1.68;100.00;98693.99;1802567;78;21053;-72
2021/12/25 12:23:56;;;;;;;37.40;22.77;;;;;;;1.66;100.00;98705.77;1764860;80;21042;-72
2021/12/25 12:26:48;;;;;;;37.80;24.40;;;;;;;1.69;100.00;98714.30;1779720;80;21512;-71
2021/12/25 12:29:45;;;;;;;37.47;23.70;;;;;;;1.73;100.00;98721.52;1729518;83;21050;-71
2021/12/25 12:32:43;;;;;;;34.27;22.13;;;;;;;1.75;100.00;98716.87;1733912;83;20997;-70
2021/12/25 12:35:26;;;;;;;33.90;22.73;;;;;;;1.79;100.00;98726.73;1707414;83;21180;-70
2021/12/25 12:37:53;;;;;;;36.58;23.40;;;;;;;1.99;100.00;98735.50;1698473;84;21081;-70
2021/12/25 12:40:25;;;;;;;39.43;25.83;;;;;;;2.28;100.00;98740.19;1653453;87;21105;-72
2021/12/25 12:42:58;;;;;;;38.93;25.10;;;;;;;2.49;100.00;98747.05;1675196;84;21092;-72
2021/12/25 12:45:34;;;;;;;39.87;25.20;;;;;;;2.55;100.00;98751.80;1653837;87;21772;-71
2021/12/25 12:48:21;;;;;;;33.73;21.77;;;;;;;2.56;100.00;98746.79;1699509;84;21049;-71
2021/12/25 12:50:55;;;;;;;41.10;25.57;;;;;;;2.59;100.00;98750.50;1653705;87;21037;-72
2021/12/25 12:53:24;;;;;;;38.27;22.37;;;;;;;2.67;100.00;98751.06;1698956;84;21566;-71
2021/12/25 12:55:53;;;;;;;34.00;21.90;;;;;;;2.69;100.00;98758.41;1640900;85;21553;-72